sensor_id;sensor_type;location;lat;lon;timestamp;temperature;humidity
33811;DHT22;20119;48.334;16.206;2023-05-08T03:16:48;7.10;99.90
33811;DHT22;20119;48.334;16.206;2023-05-08T03:19:23;7.10;99.90
33811;DHT22;20119;48.334;16.206;2023-05-08T03:24:54;7.10;99.90
33811;DHT22;20119;48.334;16.206;2023-05-08T03:27:36;7.10;99.90
33811;DHT22;20119;48.334;16.206;2023-05-08T03:30:10;7.10;99.90
33811;DHT22;20119;48.334;16.206;2023-05-08T03:32:56;7.20;99.90
33811;DHT22;20119;48.334;16.206;2023-05-08T03:35:31;7.20;99.90
33811;DHT22;20119;48.334;16.206;2023-05-08T03:38:09;7.20;99.90
33811;DHT22;20119;48.334;16.206;2023-05-08T03:43:17;7.30;99.90
33811;DHT22;20119;48.334;16.206;2023-05-08T03:45:57;7.30;99.90
33811;DHT22;20119;48.334;16.206;2023-05-08T03:48:39;7.20;99.90
33811;DHT22;20119;48.334;16.206;2023-05-08T03:51:19;7.30;99.90
33811;DHT22;20119;48.334;16.206;2023-05-08T03:53:50;7.30;99.90
33811;DHT22;20119;48.334;16.206;2023-05-08T03:56:22;7.30;99.90
33811;DHT22;20119;48.334;16.206;2023-05-08T03:58:59;7.30;99.90
33811;DHT22;20119;48.334;16.206;2023-05-08T04:01:46;7.30;99.90
33811;DHT22;20119;48.334;16.206;2023-05-08T04:04:35;7.40;99.90
33811;DHT22;20119;48.334;16.206;2023-05-08T04:07:11;7.50;99.90
33811;DHT22;20119;48.334;16.206;2023-05-08T04:09:58;7.60;99.90
33811;DHT22;20119;48.334;16.206;2023-05-08T04:12:37;7.70;99.90
33811;DHT22;20119;48.334;16.206;2023-05-08T04:15:22;8.10;99.90
33811;DHT22;20119;48.334;16.206;2023-05-08T04:18:05;8.40;99.90
33811;DHT22;20119;48.334;16.206;2023-05-08T04:20:47;8.70;99.90
33811;DHT22;20119;48.334;16.206;2023-05-08T04:23:29;8.70;99.90
33811;DHT22;20119;48.334;16.206;2023-05-08T04:26:15;9.20;99.90
33811;DHT22;20119;48.334;16.206;2023-05-08T04:29:07;9.40;99.90
33811;DHT22;20119;48.334;16.206;2023-05-08T04:31:45;9.80;99.90
33811;DHT22;20119;48.334;16.206;2023-05-08T04:34:22;9.70;99.90
33811;DHT22;20119;48.334;16.206;2023-05-08T04:37:06;10.30;99.90
33811;DHT22;20119;48.334;16.206;2023-05-08T04:39:52;9.90;99.90
33811;DHT22;20119;48.334;16.206;2023-05-08T04:42:38;9.80;99.90
33811;DHT22;20119;48.334;16.206;2023-05-08T04:45:14;9.50;99.90
33811;DHT22;20119;48.334;16.206;2023-05-08T04:47:58;9.40;99.90
33811;DHT22;20119;48.334;16.206;2023-05-08T04:53:07;9.70;99.90
33811;DHT22;20119;48.334;16.206;2023-05-08T04:55:39;10.20;99.90
33811;DHT22;20119;48.334;16.206;2023-05-08T04:58:17;9.80;99.90
33811;DHT22;20119;48.334;16.206;2023-05-08T05:00:56;9.70;99.90
33811;DHT22;20119;48.334;16.206;2023-05-08T05:03:37;9.80;99.90
33811;DHT22;20119;48.334;16.206;2023-05-08T05:06:08;10.30;99.90
33811;DHT22;20119;48.334;16.206;2023-05-08T05:08:39;11.10;99.90
33811;DHT22;20119;48.334;16.206;2023-05-08T05:11:08;11.20;99.90
33811;DHT22;20119;48.334;16.206;2023-05-08T05:13:42;11.10;99.90
33811;DHT22;20119;48.334;16.206;2023-05-08T05:16:11;11.30;99.90
33811;DHT22;20119;48.334;16.206;2023-05-08T05:18:41;11.40;99.90
33811;DHT22;20119;48.334;16.206;2023-05-08T05:21:10;11.50;99.90
33811;DHT22;20119;48.334;16.206;2023-05-08T05:23:42;11.50;99.90
33811;DHT22;20119;48.334;16.206;2023-05-08T05:26:11;11.90;99.90
33811;DHT22;20119;48.334;16.206;2023-05-08T05:28:42;11.90;99.90
33811;DHT22;20119;48.334;16.206;2023-05-08T05:31:10;11.70;99.90
33811;DHT22;20119;48.334;16.206;2023-05-08T05:33:39;10.80;99.90
33811;DHT22;20119;48.334;16.206;2023-05-08T05:36:07;10.60;99.90
33811;DHT22;20119;48.334;16.206;2023-05-08T05:38:35;10.80;99.90
33811;DHT22;20119;48.334;16.206;2023-05-08T05:41:05;11.30;99.90
33811;DHT22;20119;48.334;16.206;2023-05-08T05:43:33;11.10;99.90
33811;DHT22;20119;48.334;16.206;2023-05-08T05:46:03;11.80;99.90
